Time;durP1;ratioP1;P1;durP2;ratioP2;P2;SDS_P1;SDS_P2;PMS_P1;PMS_P2;Temp;Humidity;BMP_temperature;BMP_pressure;BME280_temperature;BME280_humidity;BME280_pressure;Samples;Min_cycle;Max_cycle;Signal;HPM_P1;HPM_P2
2023/04/26 00:00:18;;;;;;;4.80;3.20;;;;;;;;;;5053557;28;20234;-86
2023/04/26 00:02:47;;;;;;;5.60;3.17;;;;;;;;;;5063709;28;20262;-87
2023/04/26 00:05:15;;;;;;;3.40;3.10;;;;;;;;;;5061484;28;20291;-87
2023/04/26 00:07:42;;;;;;;3.33;3.03;;;;;;;;;;5059940;28;20287;-87
2023/04/26 00:10:10;;;;;;;4.63;2.80;;;;;;;;;;5059334;28;20312;-87
2023/04/26 00:12:37;;;;;;;3.43;3.10;;;;;;;;;;5051475;28;20236;-87
2023/04/26 00:15:04;;;;;;;4.83;3.33;;;;;;;;;;5059459;28;20237;-87
2023/04/26 00:17:31;;;;;;;4.90;3.40;;;;;;;;;;5063283;28;20220;-86
2023/04/26 00:20:00;;;;;;;5.53;3.70;;;;;;;;;;5055135;28;20213;-87
2023/04/26 00:22:27;;;;;;;5.93;3.93;;;;;;;;;;5051271;28;20206;-87
2023/04/26 00:24:54;;;;;;;6.03;4.23;;;;;;;;;;5043031;28;20260;-87
2023/04/26 00:27:22;;;;;;;4.17;3.73;;;;;;;;;;5046769;28;20268;-87
2023/04/26 00:29:49;;;;;;;6.13;3.87;;;;;;;;;;5056535;28;20209;-86
2023/04/26 00:32:16;;;;;;;5.27;3.93;;;;;;;;;;5067777;28;20210;-87
2023/04/26 00:34:43;;;;;;;8.33;4.03;;;;;;;;;;5047947;28;20217;-86
2023/04/26 00:37:11;;;;;;;5.63;4.00;;;;;;;;;;5047662;28;20229;-87
2023/04/26 00:39:38;;;;;;;7.03;4.47;;;;;;;;;;5055805;28;20607;-87
2023/04/26 00:42:05;;;;;;;5.30;4.37;;;;;;;;;;5058832;28;20593;-87
2023/04/26 00:44:32;;;;;;;6.37;4.30;;;;;;;;;;5051286;28;20209;-88
2023/04/26 00:47:00;;;;;;;8.50;4.10;;;;;;;;;;5055873;28;20225;-87
2023/04/26 00:49:27;;;;;;;7.63;4.10;;;;;;;;;;5051595;28;20216;-87
2023/04/26 00:51:54;;;;;;;4.10;3.70;;;;;;;;;;5050532;28;20229;-87
2023/04/26 00:54:23;;;;;;;4.53;3.57;;;;;;;;;;5050113;28;20693;-87
2023/04/26 00:56:52;;;;;;;4.67;4.13;;;;;;;;;;5056233;28;20236;-87
2023/04/26 00:59:20;;;;;;;5.67;4.07;;;;;;;;;;5051262;28;21002;-87
2023/04/26 01:01:47;;;;;;;6.27;4.13;;;;;;;;;;5040368;28;20237;-87
2023/04/26 01:04:14;;;;;;;4.43;3.73;;;;;;;;;;5048629;28;20961;-87
2023/04/26 01:06:42;;;;;;;4.57;4.17;;;;;;;;;;5038988;28;20316;-86
2023/04/26 01:09:10;;;;;;;3.83;3.53;;;;;;;;;;5047636;28;20210;-87
2023/04/26 01:11:38;;;;;;;5.17;3.40;;;;;;;;;;5043044;28;20249;-87
2023/04/26 01:14:07;;;;;;;3.90;3.50;;;;;;;;;;5047269;28;20300;-87
2023/04/26 01:16:34;;;;;;;4.63;3.27;;;;;;;;;;5058569;28;20238;-87
2023/04/26 01:19:08;;;;;;;9.47;4.07;;;;;;;;;;5049682;28;20213;-87
2023/04/26 01:21:35;;;;;;;8.50;3.77;;;;;;;;;;5036887;28;20232;-87
2023/04/26 01:24:04;;;;;;;4.80;3.43;;;;;;;;;;5050840;28;20738;-86
2023/04/26 01:26:31;;;;;;;5.20;3.43;;;;;;;;;;5061648;28;20224;-87
2023/04/26 01:28:58;;;;;;;4.30;3.37;;;;;;;;;;5060339;28;20233;-87
2023/04/26 01:31:25;;;;;;;5.13;3.57;;;;;;;;;;5054580;28;20582;-87
2023/04/26 01:33:52;;;;;;;4.67;3.63;;;;;;;;;;5051069;28;20260;-87
2023/04/26 01:36:19;;;;;;;5.07;3.90;;;;;;;;;;5058218;28;20255;-87
2023/04/26 01:38:46;;;;;;;3.47;3.20;;;;;;;;;;5050752;28;20210;-87
2023/04/26 01:41:15;;;;;;;3.60;3.40;;;;;;;;;;5045914;28;20738;-87
2023/04/26 01:43:42;;;;;;;5.40;3.80;;;;;;;;;;5066112;28;20656;-86
2023/04/26 01:46:10;;;;;;;5.77;3.80;;;;;;;;;;5057212;28;20222;-87
2023/04/26 01:48:37;;;;;;;5.63;3.53;;;;;;;;;;5062187;28;20316;-87
2023/04/26 01:51:04;;;;;;;5.03;3.47;;;;;;;;;;5053698;28;20237;-87
2023/04/26 01:53:31;;;;;;;3.83;3.50;;;;;;;;;;5056512;28;20244;-87
2023/04/26 01:56:01;;;;;;;4.13;3.67;;;;;;;;;;5053596;28;20235;-86
2023/04/26 01:58:29;;;;;;;6.63;3.90;;;;;;;;;;5053847;28;20231;-87
2023/04/26 02:00:57;;;;;;;4.73;3.47;;;;;;;;;;5059676;28;20232;-87
2023/04/26 02:03:24;;;;;;;3.97;3.67;;;;;;;;;;5063572;28;20676;-87
2023/04/26 02:05:51;;;;;;;3.70;3.40;;;;;;;;;;5053327;28;20230;-86
2023/04/26 02:08:18;;;;;;;3.97;3.50;;;;;;;;;;5062024;28;20225;-87
2023/04/26 02:10:45;;;;;;;4.83;3.73;;;;;;;;;;5058224;28;20603;-87
2023/04/26 02:13:12;;;;;;;4.20;3.80;;;;;;;;;;5055775;28;20211;-87
2023/04/26 02:15:41;;;;;;;7.13;3.70;;;;;;;;;;5064985;28;20225;-87
2023/04/26 02:18:08;;;;;;;7.30;3.63;;;;;;;;;;5055743;28;20230;-87
2023/04/26 02:20:36;;;;;;;4.23;3.40;;;;;;;;;;5053170;28;20261;-87
2023/04/26 02:23:03;;;;;;;4.17;3.63;;;;;;;;;;5062282;28;20206;-87
2023/04/26 02:25:31;;;;;;;4.63;3.60;;;;;;;;;;5048215;28;20232;-87
2023/04/26 02:27:58;;;;;;;3.53;3.23;;;;;;;;;;5053396;28;20594;-87
2023/04/26 02:30:25;;;;;;;6.40;3.40;;;;;;;;;;5061759;28;20256;-87
2023/04/26 02:32:55;;;;;;;3.67;3.37;;;;;;;;;;5059466;28;20667;-87
2023/04/26 02:35:22;;;;;;;5.50;3.60;;;;;;;;;;5052795;28;20611;-87
2023/04/26 02:37:51;;;;;;;3.77;3.37;;;;;;;;;;5053407;28;20232;-87
2023/04/26 02:40:18;;;;;;;3.83;3.47;;;;;;;;;;5053529;28;20309;-87
2023/04/26 02:42:46;;;;;;;4.43;4.03;;;;;;;;;;5046308;28;20209;-87
2023/04/26 02:45:13;;;;;;;5.13;3.43;;;;;;;;;;5061308;28;20308;-87
2023/04/26 02:47:40;;;;;;;4.47;3.47;;;;;;;;;;5054981;28;20222;-87
2023/04/26 02:50:09;;;;;;;5.80;3.70;;;;;;;;;;5068713;28;20236;-86
2023/04/26 02:52:37;;;;;;;4.57;3.80;;;;;;;;;;5053086;28;20213;-87
2023/04/26 02:55:04;;;;;;;5.17;3.87;;;;;;;;;;5050645;28;20214;-86
2023/04/26 02:57:31;;;;;;;7.40;3.53;;;;;;;;;;5073723;23;20226;-87
2023/04/26 02:59:59;;;;;;;8.17;3.83;;;;;;;;;;5050944;28;20214;-86
2023/04/26 03:02:26;;;;;;;5.77;3.80;;;;;;;;;;5040600;28;20221;-90
2023/04/26 03:04:56;;;;;;;3.93;3.30;;;;;;;;;;5048931;28;20209;-90
2023/04/26 03:07:25;;;;;;;3.63;3.27;;;;;;;;;;5056107;28;20256;-89
2023/04/26 03:09:52;;;;;;;6.10;3.00;;;;;;;;;;5049577;28;20719;-90
2023/04/26 03:12:19;;;;;;;6.73;3.60;;;;;;;;;;5051781;28;20218;-90
2023/04/26 03:14:46;;;;;;;3.87;3.50;;;;;;;;;;5039382;28;20205;-90
2023/04/26 03:17:14;;;;;;;4.87;4.40;;;;;;;;;;5053141;28;20233;-90
2023/04/26 03:19:41;;;;;;;4.30;3.60;;;;;;;;;;5031702;28;20246;-90
2023/04/26 03:22:10;;;;;;;5.27;3.57;;;;;;;;;;5034553;28;20242;-90
2023/04/26 03:24:38;;;;;;;4.80;3.17;;;;;;;;;;5043452;28;20217;-90
2023/04/26 03:27:05;;;;;;;7.87;3.90;;;;;;;;;;5028200;28;20222;-90
2023/04/26 03:29:32;;;;;;;5.27;4.13;;;;;;;;;;5028464;28;20207;-90
2023/04/26 03:32:00;;;;;;;4.17;3.63;;;;;;;;;;5026975;28;20226;-90
2023/04/26 03:34:27;;;;;;;5.93;3.97;;;;;;;;;;5044779;28;20301;-90
2023/04/26 03:36:54;;;;;;;5.90;4.20;;;;;;;;;;5045066;28;20226;-90
2023/04/26 03:39:21;;;;;;;5.27;3.53;;;;;;;;;;5044378;28;20597;-90
2023/04/26 03:41:50;;;;;;;6.93;4.00;;;;;;;;;;5034004;28;20230;-89
2023/04/26 03:44:17;;;;;;;7.53;3.90;;;;;;;;;;5035051;28;20649;-90
2023/04/26 03:46:44;;;;;;;4.57;3.87;;;;;;;;;;5050058;28;20711;-90
2023/04/26 03:49:11;;;;;;;5.00;3.73;;;;;;;;;;5042941;28;20636;-90
2023/04/26 03:51:38;;;;;;;6.03;4.17;;;;;;;;;;5053084;28;20687;-90
2023/04/26 03:54:06;;;;;;;4.77;3.93;;;;;;;;;;5046314;28;20573;-90
2023/04/26 03:56:33;;;;;;;4.97;3.73;;;;;;;;;;5034949;28;20265;-90
2023/04/26 03:59:01;;;;;;;6.63;3.83;;;;;;;;;;5034047;28;20234;-90
2023/04/26 04:01:28;;;;;;;10.73;3.73;;;;;;;;;;5033434;28;20234;-90
2023/04/26 04:03:55;;;;;;;6.00;4.27;;;;;;;;;;5041550;28;20199;-90
2023/04/26 04:06:22;;;;;;;3.97;3.60;;;;;;;;;;5041296;28;20237;-90
2023/04/26 04:08:49;;;;;;;4.60;4.17;;;;;;;;;;5033348;28;20222;-90
2023/04/26 04:11:16;;;;;;;5.03;3.83;;;;;;;;;;5032951;28;20226;-89
2023/04/26 04:13:43;;;;;;;7.27;3.67;;;;;;;;;;5041875;28;20213;-89
2023/04/26 04:16:11;;;;;;;5.57;3.87;;;;;;;;;;5032817;28;20234;-89
2023/04/26 04:18:39;;;;;;;4.20;3.90;;;;;;;;;;5033066;28;20232;-88
2023/04/26 04:21:06;;;;;;;4.80;3.73;;;;;;;;;;5045813;28;20232;-89
2023/04/26 04:23:33;;;;;;;4.27;3.90;;;;;;;;;;5033199;28;20214;-88
2023/04/26 04:26:00;;;;;;;6.63;3.90;;;;;;;;;;5037913;28;20226;-88
2023/04/26 04:28:28;;;;;;;4.10;3.70;;;;;;;;;;5036819;28;20233;-89
2023/04/26 04:30:56;;;;;;;5.27;4.00;;;;;;;;;;5036083;28;20699;-87
2023/04/26 04:33:27;;;;;;;5.80;3.77;;;;;;;;;;5034983;28;20210;-88
2023/04/26 04:35:54;;;;;;;4.70;4.23;;;;;;;;;;5032065;28;20226;-88
2023/04/26 04:38:22;;;;;;;8.40;4.30;;;;;;;;;;5041711;28;20288;-89
2023/04/26 04:40:49;;;;;;;5.23;3.80;;;;;;;;;;5039989;28;20233;-88
2023/04/26 04:43:16;;;;;;;4.43;4.00;;;;;;;;;;5029416;28;20616;-89
2023/04/26 04:45:44;;;;;;;4.37;4.07;;;;;;;;;;5024017;28;20226;-89
2023/04/26 04:48:11;;;;;;;4.33;3.93;;;;;;;;;;5027343;28;20227;-89
2023/04/26 04:50:40;;;;;;;4.40;4.00;;;;;;;;;;5030318;28;20729;-88
2023/04/26 04:53:08;;;;;;;5.00;4.47;;;;;;;;;;5036936;28;20221;-88
2023/04/26 04:55:36;;;;;;;7.03;4.47;;;;;;;;;;5031631;28;20277;-88
2023/04/26 04:58:03;;;;;;;5.70;4.53;;;;;;;;;;5035372;28;20230;-88
2023/04/26 05:00:31;;;;;;;4.90;4.40;;;;;;;;;;5036152;28;20241;-88
2023/04/26 05:02:58;;;;;;;8.63;5.30;;;;;;;;;;5034825;28;20212;-89
2023/04/26 05:05:25;;;;;;;5.90;4.73;;;;;;;;;;5034881;28;20231;-87
2023/04/26 05:07:53;;;;;;;6.27;4.93;;;;;;;;;;5039546;28;20625;-89
2023/04/26 05:10:20;;;;;;;12.23;4.93;;;;;;;;;;5037246;28;20665;-89
2023/04/26 05:12:47;;;;;;;7.37;4.97;;;;;;;;;;5032972;28;20206;-87
2023/04/26 05:15:16;;;;;;;5.83;4.73;;;;;;;;;;5040656;28;20227;-88
2023/04/26 05:17:43;;;;;;;8.83;5.30;;;;;;;;;;5045146;28;20221;-88
2023/04/26 05:20:10;;;;;;;6.53;4.77;;;;;;;;;;5036317;28;20234;-87
2023/04/26 05:22:38;;;;;;;6.40;4.30;;;;;;;;;;5036738;28;20220;-87
2023/04/26 05:25:07;;;;;;;5.10;4.53;;;;;;;;;;5033999;28;20221;-88
2023/04/26 05:27:53;;;;;;;5.50;4.47;;;;;;;;;;5015381;28;20261;-89
2023/04/26 05:30:23;;;;;;;7.97;4.47;;;;;;;;;;5017281;28;20270;-89
2023/04/26 05:32:50;;;;;;;5.13;4.67;;;;;;;;;;5005768;28;20217;-89
2023/04/26 05:35:17;;;;;;;6.10;5.00;;;;;;;;;;5011886;28;20574;-89
2023/04/26 05:37:46;;;;;;;8.57;4.63;;;;;;;;;;5016652;28;20230;-89
2023/04/26 05:40:22;;;;;;;10.57;5.30;;;;;;;;;;5016631;28;20227;-89
2023/04/26 05:42:50;;;;;;;6.97;4.63;;;;;;;;;;5009620;28;20298;-88
2023/04/26 05:45:22;;;;;;;11.03;6.50;;;;;;;;;;5012898;28;20224;-89
2023/04/26 05:47:50;;;;;;;7.13;4.67;;;;;;;;;;5008903;28;20231;-89
2023/04/26 05:50:17;;;;;;;7.57;5.20;;;;;;;;;;5015794;28;20318;-89
2023/04/26 05:52:44;;;;;;;7.37;6.07;;;;;;;;;;5015874;28;20207;-89
2023/04/26 05:55:12;;;;;;;9.33;5.80;;;;;;;;;;5015893;28;20238;-90
2023/04/26 05:57:40;;;;;;;7.17;5.17;;;;;;;;;;5016767;28;20234;-90
2023/04/26 06:00:10;;;;;;;5.43;4.80;;;;;;;;;;5016282;28;20231;-87
2023/04/26 06:02:37;;;;;;;9.00;5.80;;;;;;;;;;5016048;28;20214;-86
2023/04/26 06:05:05;;;;;;;7.83;5.80;;;;;;;;;;5014950;28;20210;-85
2023/04/26 06:07:32;;;;;;;8.37;5.00;;;;;;;;;;5015915;28;20230;-86
2023/04/26 06:10:01;;;;;;;9.40;6.30;;;;;;;;;;5011924;28;20673;-85
2023/04/26 06:12:28;;;;;;;9.33;5.43;;;;;;;;;;5014678;28;20231;-85
2023/04/26 06:14:57;;;;;;;6.50;5.20;;;;;;;;;;5014700;28;20204;-85
2023/04/26 06:17:24;;;;;;;6.90;5.73;;;;;;;;;;5014846;28;20697;-85
2023/04/26 06:19:51;;;;;;;9.43;5.83;;;;;;;;;;5014801;28;20213;-85
2023/04/26 06:22:18;;;;;;;11.50;5.60;;;;;;;;;;5015463;28;20212;-85
2023/04/26 06:24:45;;;;;;;5.83;4.87;;;;;;;;;;5014632;28;20201;-84
2023/04/26 06:27:12;;;;;;;7.33;5.63;;;;;;;;;;5014635;28;20199;-87
2023/04/26 06:29:40;;;;;;;6.00;5.33;;;;;;;;;;5014652;28;20210;-84
2023/04/26 06:32:08;;;;;;;7.93;4.90;;;;;;;;;;5007950;28;20244;-85
2023/04/26 06:34:36;;;;;;;7.63;5.57;;;;;;;;;;5014692;28;20203;-85
2023/04/26 06:37:03;;;;;;;8.40;5.53;;;;;;;;;;5019436;28;20234;-85
2023/04/26 06:39:30;;;;;;;8.70;5.87;;;;;;;;;;5012256;28;20237;-85
2023/04/26 06:41:57;;;;;;;9.07;5.60;;;;;;;;;;5009357;28;20719;-85
2023/04/26 06:44:25;;;;;;;5.80;5.20;;;;;;;;;;5011328;28;20206;-85
2023/04/26 06:46:54;;;;;;;8.10;4.60;;;;;;;;;;5014024;28;20231;-85
2023/04/26 06:49:23;;;;;;;4.80;4.30;;;;;;;;;;5014161;28;20266;-85
2023/04/26 06:51:51;;;;;;;9.57;4.30;;;;;;;;;;5013358;28;20231;-86
2023/04/26 06:54:18;;;;;;;7.20;4.73;;;;;;;;;;5015166;28;20257;-88
2023/04/26 06:56:45;;;;;;;8.43;4.60;;;;;;;;;;5014131;28;20242;-87
2023/04/26 06:59:12;;;;;;;5.73;4.43;;;;;;;;;;5014495;28;20227;-88
2023/04/26 07:01:40;;;;;;;8.17;4.83;;;;;;;;;;5013004;28;20235;-87
2023/04/26 07:04:09;;;;;;;6.33;4.10;;;;;;;;;;5013150;28;20206;-87
2023/04/26 07:06:37;;;;;;;8.17;4.50;;;;;;;;;;5013041;28;20241;-87
2023/04/26 07:09:05;;;;;;;8.90;4.73;;;;;;;;;;5013619;28;20219;-86
2023/04/26 07:11:32;;;;;;;8.37;4.23;;;;;;;;;;5012989;28;20227;-86
2023/04/26 07:13:59;;;;;;;6.87;4.57;;;;;;;;;;5014122;28;20849;-87
2023/04/26 07:16:27;;;;;;;5.90;4.00;;;;;;;;;;5013633;28;20230;-88
2023/04/26 07:18:57;;;;;;;7.30;3.90;;;;;;;;;;5005940;28;20235;-87
2023/04/26 07:21:24;;;;;;;8.37;4.20;;;;;;;;;;5005061;28;20238;-86
2023/04/26 07:23:55;;;;;;;5.93;3.90;;;;;;;;;;5013179;28;20203;-87
2023/04/26 07:26:22;;;;;;;5.33;3.90;;;;;;;;;;5012885;28;20263;-86
2023/04/26 07:28:49;;;;;;;8.47;3.97;;;;;;;;;;5013159;28;20223;-86
2023/04/26 07:31:16;;;;;;;5.43;4.10;;;;;;;;;;5012755;28;20697;-87
2023/04/26 07:33:43;;;;;;;7.63;4.40;;;;;;;;;;5003965;28;20204;-87
2023/04/26 07:36:10;;;;;;;8.87;3.70;;;;;;;;;;5006337;28;20244;-86
2023/04/26 07:38:37;;;;;;;4.13;3.33;;;;;;;;;;5010468;28;20231;-86
2023/04/26 07:41:12;;;;;;;6.57;3.70;;;;;;;;;;5012584;28;20750;-87
2023/04/26 07:43:40;;;;;;;3.60;3.30;;;;;;;;;;5004652;28;20210;-86
2023/04/26 07:46:07;;;;;;;5.47;3.47;;;;;;;;;;5007119;28;20255;-85
2023/04/26 07:48:35;;;;;;;4.70;4.03;;;;;;;;;;5009868;28;20278;-84
2023/04/26 07:51:08;;;;;;;6.83;3.30;;;;;;;;;;5007055;28;20232;-85
2023/04/26 07:53:35;;;;;;;5.20;3.10;;;;;;;;;;5009027;28;20211;-85
2023/04/26 07:56:05;;;;;;;5.37;3.20;;;;;;;;;;5011271;28;20230;-84
2023/04/26 07:58:33;;;;;;;6.13;3.23;;;;;;;;;;5010924;28;20709;-85
2023/04/26 08:01:00;;;;;;;5.03;3.30;;;;;;;;;;4995043;28;20445;-83
2023/04/26 08:03:27;;;;;;;4.10;3.10;;;;;;;;;;5003803;28;20738;-85
2023/04/26 08:05:54;;;;;;;4.97;3.13;;;;;;;;;;4999575;28;20250;-85
2023/04/26 08:08:21;;;;;;;6.50;3.40;;;;;;;;;;5012152;28;20227;-83
2023/04/26 08:10:49;;;;;;;7.73;3.70;;;;;;;;;;5010921;28;20231;-84
2023/04/26 08:13:16;;;;;;;4.43;2.97;;;;;;;;;;5012651;28;20213;-87
2023/04/26 08:15:45;;;;;;;3.63;3.07;;;;;;;;;;5014481;28;20235;-87
2023/04/26 08:18:12;;;;;;;4.50;2.97;;;;;;;;;;5012874;28;20266;-87
2023/04/26 08:20:39;;;;;;;4.07;2.93;;;;;;;;;;5011350;28;20231;-86
2023/04/26 08:23:06;;;;;;;4.43;3.00;;;;;;;;;;5012374;28;20203;-87
2023/04/26 08:25:34;;;;;;;7.10;3.17;;;;;;;;;;5011778;28;20230;-81
2023/04/26 08:28:03;;;;;;;4.87;3.10;;;;;;;;;;5007780;28;20215;-82
2023/04/26 08:30:37;;;;;;;3.37;2.93;;;;;;;;;;5021514;28;20319;-82
2023/04/26 08:33:06;;;;;;;6.73;3.00;;;;;;;;;;5005075;28;20207;-82
2023/04/26 08:35:33;;;;;;;5.07;2.93;;;;;;;;;;5009649;28;20762;-82
2023/04/26 08:38:02;;;;;;;4.60;2.50;;;;;;;;;;5011119;28;20235;-85
2023/04/26 08:40:30;;;;;;;4.20;3.07;;;;;;;;;;5002475;28;20235;-83
2023/04/26 08:42:57;;;;;;;4.87;2.80;;;;;;;;;;5003664;28;20620;-85
2023/04/26 08:45:25;;;;;;;6.27;2.80;;;;;;;;;;5002723;28;20721;-85
2023/04/26 08:47:54;;;;;;;6.47;3.00;;;;;;;;;;5010197;28;20246;-83
2023/04/26 08:50:23;;;;;;;4.03;2.70;;;;;;;;;;5010414;28;20227;-85
2023/04/26 08:52:51;;;;;;;6.40;2.60;;;;;;;;;;4996238;28;20242;-84
2023/04/26 08:55:20;;;;;;;2.73;2.50;;;;;;;;;;5007875;28;20234;-84
2023/04/26 08:57:47;;;;;;;6.63;2.90;;;;;;;;;;5038087;22;20293;-83
2023/04/26 09:00:15;;;;;;;5.50;2.63;;;;;;;;;;5005205;28;20688;-83
2023/04/26 09:02:42;;;;;;;6.13;3.00;;;;;;;;;;5004883;28;20212;-83
2023/04/26 09:05:11;;;;;;;5.33;2.80;;;;;;;;;;5000343;28;20239;-83
2023/04/26 09:07:42;;;;;;;5.20;2.60;;;;;;;;;;5003296;28;20841;-83
2023/04/26 09:10:10;;;;;;;4.90;3.00;;;;;;;;;;5013721;28;20255;-83
2023/04/26 09:12:37;;;;;;;4.70;2.87;;;;;;;;;;5013592;28;20215;-84
2023/04/26 09:15:06;;;;;;;5.13;2.50;;;;;;;;;;5009504;28;20207;-83
2023/04/26 09:17:33;;;;;;;8.07;3.10;;;;;;;;;;5013550;28;20212;-84
2023/04/26 09:20:04;;;;;;;6.27;2.70;;;;;;;;;;5005772;28;20723;-84
2023/04/26 09:22:32;;;;;;;4.10;2.60;;;;;;;;;;5013508;28;20208;-84
2023/04/26 09:25:00;;;;;;;4.27;3.13;;;;;;;;;;5012802;28;20235;-84
2023/04/26 09:27:34;;;;;;;4.20;2.77;;;;;;;;;;5014122;28;20554;-84
2023/04/26 09:30:04;;;;;;;6.47;2.90;;;;;;;;;;5013185;28;20207;-83
2023/04/26 09:32:43;;;;;;;2.90;2.60;;;;;;;;;;5013874;28;20215;-84
2023/04/26 09:35:18;;;;;;;3.70;2.43;;;;;;;;;;5013440;28;20235;-83
2023/04/26 09:37:52;;;;;;;7.67;3.07;;;;;;;;;;5013324;28;20249;-83
2023/04/26 09:40:20;;;;;;;5.80;2.90;;;;;;;;;;5013271;28;20235;-83
2023/04/26 09:42:47;;;;;;;3.47;2.77;;;;;;;;;;5013089;28;20215;-83
2023/04/26 09:45:16;;;;;;;3.53;2.40;;;;;;;;;;5012483;28;20630;-83
2023/04/26 09:47:43;;;;;;;3.90;2.63;;;;;;;;;;5009156;28;20214;-83
2023/04/26 09:50:10;;;;;;;5.87;2.70;;;;;;;;;;5005743;28;20235;-83
2023/04/26 09:52:44;;;;;;;5.63;2.60;;;;;;;;;;5007341;28;20302;-83
2023/04/26 09:55:11;;;;;;;5.43;2.30;;;;;;;;;;5005415;28;20238;-83
2023/04/26 09:57:44;;;;;;;4.30;2.60;;;;;;;;;;5012854;28;20673;-83
2023/04/26 10:00:13;;;;;;;2.87;2.37;;;;;;;;;;5005246;28;20242;-83
2023/04/26 10:02:40;;;;;;;6.70;2.13;;;;;;;;;;5012744;28;20215;-85
2023/04/26 10:05:08;;;;;;;6.00;2.60;;;;;;;;;;5012646;28;20697;-84
2023/04/26 10:07:35;;;;;;;3.77;2.83;;;;;;;;;;5013109;28;20246;-84
2023/04/26 10:10:03;;;;;;;3.47;2.45;;;;;;;;;;5012773;28;20208;-83
2023/04/26 10:12:30;;;;;;;5.35;2.75;;;;;;;;;;5013330;28;20218;-83
2023/04/26 10:14:59;;;;;;;2.80;2.25;;;;;;;;;;5007268;28;20226;-83
2023/04/26 10:17:26;;;;;;;3.38;2.53;;;;;;;;;;4974129;28;20224;-83
2023/04/26 10:19:56;;;;;;;3.65;2.30;;;;;;;;;;4975643;28;20244;-83
2023/04/26 10:22:25;;;;;;;3.38;2.40;;;;;;;;;;4985504;28;20223;-83
2023/04/26 10:24:52;;;;;;;4.53;2.50;;;;;;;;;;4984177;28;20222;-83
2023/04/26 10:27:47;;;;;;;6.68;2.70;;;;;;;;;;4979682;28;20217;-83
2023/04/26 10:30:16;;;;;;;7.75;2.67;;;;;;;;;;4989547;28;20347;-83
2023/04/26 10:33:17;;;;;;;5.57;2.50;;;;;;;;;;4990073;28;20216;-83
2023/04/26 10:36:01;;;;;;;9.95;2.65;;;;;;;;;;4988713;28;20302;-83
2023/04/26 10:38:28;;;;;;;4.18;2.40;;;;;;;;;;4992875;28;20235;-83
2023/04/26 10:40:55;;;;;;;4.45;2.83;;;;;;;;;;5001727;28;20247;-83
2023/04/26 10:43:29;;;;;;;5.22;2.50;;;;;;;;;;5013202;28;20281;-83
2023/04/26 10:45:57;;;;;;;8.13;2.67;;;;;;;;;;5011048;28;20242;-83
2023/04/26 10:48:29;;;;;;;3.08;2.35;;;;;;;;;;5004526;28;20242;-84
2023/04/26 10:51:10;;;;;;;3.83;2.13;;;;;;;;;;5011628;28;20235;-84
2023/04/26 10:53:53;;;;;;;5.63;2.70;;;;;;;;;;5012858;28;20638;-85
2023/04/26 10:56:34;;;;;;;5.15;2.65;;;;;;;;;;5010768;28;20234;-84
2023/04/26 10:59:08;;;;;;;6.38;2.60;;;;;;;;;;5008748;28;20308;-83
2023/04/26 11:01:36;;;;;;;4.63;2.30;;;;;;;;;;5007911;28;20239;-83
2023/04/26 11:04:09;;;;;;;7.03;2.70;;;;;;;;;;5006648;28;20207;-83
2023/04/26 11:06:49;;;;;;;5.47;2.60;;;;;;;;;;5007086;28;20604;-83
2023/04/26 11:09:36;;;;;;;4.07;2.30;;;;;;;;;;5009447;28;20708;-83
2023/04/26 11:12:05;;;;;;;2.90;2.17;;;;;;;;;;5001918;28;20602;-85
2023/04/26 11:14:32;;;;;;;3.58;2.90;;;;;;;;;;5012486;28;20215;-84
2023/04/26 11:17:03;;;;;;;4.00;2.53;;;;;;;;;;5011390;28;20234;-85
2023/04/26 11:19:30;;;;;;;3.10;2.17;;;;;;;;;;5018233;28;20310;-84
2023/04/26 11:21:57;;;;;;;4.80;2.10;;;;;;;;;;5012306;28;20263;-85
2023/04/26 11:24:27;;;;;;;3.30;2.20;;;;;;;;;;5011782;28;20585;-84
2023/04/26 11:26:55;;;;;;;5.38;2.40;;;;;;;;;;5011108;28;20354;-85
2023/04/26 11:29:22;;;;;;;3.65;2.28;;;;;;;;;;5011195;28;20230;-84
2023/04/26 11:31:53;;;;;;;5.28;2.25;;;;;;;;;;5011071;28;20766;-84
2023/04/26 11:34:23;;;;;;;3.47;2.22;;;;;;;;;;5011721;28;20230;-84
2023/04/26 11:36:51;;;;;;;4.30;2.35;;;;;;;;;;4987120;28;20231;-84
2023/04/26 11:39:20;;;;;;;4.78;2.20;;;;;;;;;;4991623;28;20255;-84
2023/04/26 11:41:47;;;;;;;5.20;2.83;;;;;;;;;;4983664;28;20232;-84
2023/04/26 11:44:19;;;;;;;3.15;2.08;;;;;;;;;;4979391;28;20213;-84
2023/04/26 11:46:46;;;;;;;3.03;2.20;;;;;;;;;;4979821;28;20256;-84
2023/04/26 11:49:14;;;;;;;2.78;2.20;;;;;;;;;;4987815;28;20247;-86
2023/04/26 11:51:42;;;;;;;4.90;2.50;;;;;;;;;;4987798;28;20236;-86
2023/04/26 11:54:11;;;;;;;3.13;2.20;;;;;;;;;;4981790;28;20209;-85
2023/04/26 11:56:39;;;;;;;4.45;2.40;;;;;;;;;;4998599;28;20262;-86
2023/04/26 11:59:06;;;;;;;4.50;2.13;;;;;;;;;;5001169;28;20246;-87
2023/04/26 12:01:33;;;;;;;4.22;2.78;;;;;;;;;;5009397;28;20254;-88
2023/04/26 12:04:01;;;;;;;5.72;2.63;;;;;;;;;;5010784;28;20219;-86
2023/04/26 12:06:31;;;;;;;4.30;2.17;;;;;;;;;;5010157;28;20238;-86
2023/04/26 12:09:01;;;;;;;3.58;2.28;;;;;;;;;;5010897;28;20255;-87
2023/04/26 12:11:28;;;;;;;4.15;2.60;;;;;;;;;;5010422;28;20242;-87
2023/04/26 12:13:58;;;;;;;2.40;2.00;;;;;;;;;;5011011;28;20215;-87
2023/04/26 12:16:25;;;;;;;3.60;2.03;;;;;;;;;;5000716;28;20235;-87
2023/04/26 12:18:53;;;;;;;4.78;2.10;;;;;;;;;;5010471;28;20231;-87
2023/04/26 12:21:20;;;;;;;3.15;2.47;;;;;;;;;;5009492;28;20235;-87
2023/04/26 12:23:47;;;;;;;3.00;2.22;;;;;;;;;;5002026;28;20211;-84
2023/04/26 12:26:16;;;;;;;4.47;2.30;;;;;;;;;;5010215;28;20310;-86
2023/04/26 12:28:43;;;;;;;3.63;2.33;;;;;;;;;;5010463;28;20235;-87
2023/04/26 12:31:11;;;;;;;3.63;2.08;;;;;;;;;;4993838;28;20223;-85
2023/04/26 12:33:39;;;;;;;3.97;2.40;;;;;;;;;;5010656;28;20669;-84
2023/04/26 12:36:06;;;;;;;3.85;2.30;;;;;;;;;;5009934;28;20317;-84
2023/04/26 12:38:34;;;;;;;3.05;1.95;;;;;;;;;;5010668;28;20263;-84
2023/04/26 12:41:01;;;;;;;2.65;2.13;;;;;;;;;;5009985;28;20245;-85
2023/04/26 12:43:29;;;;;;;2.40;1.85;;;;;;;;;;5010308;28;20677;-84
2023/04/26 12:45:56;;;;;;;5.35;2.47;;;;;;;;;;5009777;28;20703;-84
2023/04/26 12:48:23;;;;;;;3.97;2.22;;;;;;;;;;5010155;28;20236;-85
2023/04/26 12:50:51;;;;;;;4.28;2.28;;;;;;;;;;5009542;28;20251;-84
2023/04/26 12:53:18;;;;;;;5.82;2.50;;;;;;;;;;5009098;28;20211;-84
2023/04/26 12:55:45;;;;;;;2.67;1.80;;;;;;;;;;5002689;28;20231;-85
2023/04/26 12:58:12;;;;;;;4.25;2.25;;;;;;;;;;5005313;28;20595;-84
2023/04/26 13:00:41;;;;;;;4.70;2.00;;;;;;;;;;5001039;28;20614;-85
2023/04/26 13:03:08;;;;;;;5.18;2.58;;;;;;;;;;5004039;28;20219;-84
2023/04/26 13:05:35;;;;;;;3.85;2.25;;;;;;;;;;5009155;28;20227;-84
2023/04/26 13:08:02;;;;;;;3.70;2.10;;;;;;;;;;5005302;28;20239;-84
2023/04/26 13:10:29;;;;;;;2.80;2.10;;;;;;;;;;5012757;28;20238;-86
2023/04/26 13:12:57;;;;;;;3.88;2.28;;;;;;;;;;5014283;28;20219;-86
2023/04/26 13:15:25;;;;;;;3.50;2.03;;;;;;;;;;5009979;28;20235;-87
2023/04/26 13:17:54;;;;;;;2.22;1.90;;;;;;;;;;5012620;28;20239;-84
2023/04/26 13:20:21;;;;;;;3.60;1.85;;;;;;;;;;5009697;28;20238;-85
2023/04/26 13:22:50;;;;;;;3.47;2.13;;;;;;;;;;5010712;28;20215;-85
2023/04/26 13:25:18;;;;;;;5.03;2.22;;;;;;;;;;5002293;28;20227;-88
2023/04/26 13:27:45;;;;;;;2.85;2.05;;;;;;;;;;5011571;28;20227;-87
2023/04/26 13:30:13;;;;;;;3.45;2.35;;;;;;;;;;5013200;28;20250;-89
2023/04/26 13:32:40;;;;;;;3.08;1.83;;;;;;;;;;5011432;28;20239;-88
2023/04/26 13:35:10;;;;;;;2.17;1.90;;;;;;;;;;5009920;28;20238;-88
2023/04/26 13:37:37;;;;;;;3.63;1.92;;;;;;;;;;5014505;28;20294;-87
2023/04/26 13:40:05;;;;;;;3.30;2.05;;;;;;;;;;5013473;28;23316;-87
2023/04/26 13:42:32;;;;;;;3.55;2.00;;;;;;;;;;5014279;28;20216;-85
2023/04/26 13:45:00;;;;;;;3.10;1.80;;;;;;;;;;5014328;28;20242;-85
2023/04/26 13:47:28;;;;;;;3.63;2.00;;;;;;;;;;5015700;28;20274;-85
2023/04/26 13:49:55;;;;;;;4.13;1.90;;;;;;;;;;5011218;28;20597;-85
2023/04/26 13:52:23;;;;;;;3.30;2.03;;;;;;;;;;4991181;28;20613;-85
2023/04/26 13:54:50;;;;;;;3.08;1.98;;;;;;;;;;4987050;28;20267;-85
2023/04/26 13:57:18;;;;;;;3.92;2.08;;;;;;;;;;5015168;28;20591;-85
2023/04/26 13:59:45;;;;;;;5.85;2.22;;;;;;;;;;5013343;28;20246;-85
2023/04/26 14:02:12;;;;;;;3.63;2.05;;;;;;;;;;5010545;28;20302;-85
2023/04/26 14:04:40;;;;;;;5.80;2.60;;;;;;;;;;5015899;28;20277;-85
2023/04/26 14:07:07;;;;;;;4.72;2.10;;;;;;;;;;5013033;28;20231;-87
2023/04/26 14:09:36;;;;;;;3.30;1.98;;;;;;;;;;5009875;28;20227;-86
2023/04/26 14:12:03;;;;;;;3.05;2.00;;;;;;;;;;5015187;28;20318;-87
2023/04/26 14:14:30;;;;;;;2.63;1.83;;;;;;;;;;5016366;28;20215;-89
2023/04/26 14:16:57;;;;;;;3.22;2.08;;;;;;;;;;5016973;28;20235;-88
2023/04/26 14:19:25;;;;;;;4.32;2.72;;;;;;;;;;5020602;28;20243;-85
2023/04/26 14:21:52;;;;;;;2.30;1.75;;;;;;;;;;5016297;28;20231;-87
2023/04/26 14:24:19;;;;;;;3.85;2.33;;;;;;;;;;5015861;28;20234;-85
2023/04/26 14:26:47;;;;;;;6.38;2.70;;;;;;;;;;5000547;28;20254;-85
2023/04/26 14:29:14;;;;;;;4.07;2.00;;;;;;;;;;4994847;28;20726;-85
2023/04/26 14:31:42;;;;;;;4.72;2.35;;;;;;;;;;5004929;28;20315;-85
2023/04/26 14:34:09;;;;;;;3.67;1.90;;;;;;;;;;5019286;28;20573;-86
2023/04/26 14:36:36;;;;;;;3.53;2.00;;;;;;;;;;5019233;28;20289;-89
2023/04/26 14:39:04;;;;;;;3.20;1.90;;;;;;;;;;5015833;28;20226;-88
2023/04/26 14:41:31;;;;;;;5.70;1.98;;;;;;;;;;5014974;28;20243;-88
2023/04/26 14:43:59;;;;;;;1.80;1.70;;;;;;;;;;5010008;28;20211;-88
2023/04/26 14:46:27;;;;;;;3.30;2.00;;;;;;;;;;5013745;28;20239;-88
2023/04/26 14:48:54;;;;;;;4.82;2.20;;;;;;;;;;5014935;28;20835;-87